sensor_id;sensor_type;location;lat;lon;timestamp;temperature;humidity
23609;DHT22;11982;50.810;4.442;2022-07-06T00:00:39;11.90;99.90
23609;DHT22;11982;50.810;4.442;2022-07-06T00:03:04;12.00;99.90
23609;DHT22;11982;50.810;4.442;2022-07-06T00:05:30;11.90;99.90
23609;DHT22;11982;50.810;4.442;2022-07-06T00:07:56;11.80;99.90
23609;DHT22;11982;50.810;4.442;2022-07-06T00:10:21;11.80;99.90
23609;DHT22;11982;50.810;4.442;2022-07-06T00:12:47;11.80;99.90
23609;DHT22;11982;50.810;4.442;2022-07-06T00:15:12;11.70;99.90
23609;DHT22;11982;50.810;4.442;2022-07-06T00:17:38;11.70;99.90
23609;DHT22;11982;50.810;4.442;2022-07-06T00:20:04;11.70;99.90
23609;DHT22;11982;50.810;4.442;2022-07-06T00:22:30;11.70;99.90
23609;DHT22;11982;50.810;4.442;2022-07-06T00:24:55;11.50;99.90
23609;DHT22;11982;50.810;4.442;2022-07-06T00:27:21;11.50;99.90
23609;DHT22;11982;50.810;4.442;2022-07-06T00:29:46;11.50;99.90
23609;DHT22;11982;50.810;4.442;2022-07-06T00:32:12;11.40;99.90
23609;DHT22;11982;50.810;4.442;2022-07-06T00:34:38;11.40;99.90
23609;DHT22;11982;50.810;4.442;2022-07-06T00:37:07;11.40;99.90
23609;DHT22;11982;50.810;4.442;2022-07-06T00:39:33;11.40;99.90
23609;DHT22;11982;50.810;4.442;2022-07-06T00:41:59;11.40;99.90
23609;DHT22;11982;50.810;4.442;2022-07-06T00:44:25;11.30;99.90
23609;DHT22;11982;50.810;4.442;2022-07-06T00:46:51;11.40;99.90
23609;DHT22;11982;50.810;4.442;2022-07-06T00:49:16;11.40;99.90
23609;DHT22;11982;50.810;4.442;2022-07-06T00:52:01;11.30;99.90
23609;DHT22;11982;50.810;4.442;2022-07-06T00:54:29;11.40;99.90
23609;DHT22;11982;50.810;4.442;2022-07-06T00:56:56;11.30;99.90
23609;DHT22;11982;50.810;4.442;2022-07-06T00:59:23;11.20;99.90
23609;DHT22;11982;50.810;4.442;2022-07-06T01:01:49;11.20;99.90
23609;DHT22;11982;50.810;4.442;2022-07-06T01:04:14;11.20;99.90
23609;DHT22;11982;50.810;4.442;2022-07-06T01:06:40;11.20;99.90
23609;DHT22;11982;50.810;4.442;2022-07-06T01:09:06;11.10;99.90
23609;DHT22;11982;50.810;4.442;2022-07-06T01:11:32;11.10;99.90
23609;DHT22;11982;50.810;4.442;2022-07-06T01:14:00;11.10;99.90
23609;DHT22;11982;50.810;4.442;2022-07-06T01:16:26;11.20;99.90
23609;DHT22;11982;50.810;4.442;2022-07-06T01:18:51;11.20;99.90
23609;DHT22;11982;50.810;4.442;2022-07-06T01:21:17;11.00;99.90
23609;DHT22;11982;50.810;4.442;2022-07-06T01:23:44;10.90;99.90
23609;DHT22;11982;50.810;4.442;2022-07-06T01:26:12;11.00;99.90
23609;DHT22;11982;50.810;4.442;2022-07-06T01:28:38;11.00;99.90
23609;DHT22;11982;50.810;4.442;2022-07-06T01:31:04;11.00;99.90
23609;DHT22;11982;50.810;4.442;2022-07-06T01:33:30;10.90;99.90
23609;DHT22;11982;50.810;4.442;2022-07-06T01:35:56;10.90;99.90
23609;DHT22;11982;50.810;4.442;2022-07-06T01:38:21;10.90;99.90
23609;DHT22;11982;50.810;4.442;2022-07-06T01:40:47;10.90;99.90
23609;DHT22;11982;50.810;4.442;2022-07-06T01:43:12;10.90;99.90
23609;DHT22;11982;50.810;4.442;2022-07-06T01:45:38;10.80;99.90
23609;DHT22;11982;50.810;4.442;2022-07-06T01:48:06;10.70;99.90
23609;DHT22;11982;50.810;4.442;2022-07-06T01:50:32;10.70;99.90
23609;DHT22;11982;50.810;4.442;2022-07-06T01:52:59;10.70;99.90
23609;DHT22;11982;50.810;4.442;2022-07-06T01:55:25;10.80;99.90
23609;DHT22;11982;50.810;4.442;2022-07-06T01:57:51;10.80;99.90
23609;DHT22;11982;50.810;4.442;2022-07-06T02:00:16;10.80;99.90
23609;DHT22;11982;50.810;4.442;2022-07-06T02:02:42;10.80;99.90
23609;DHT22;11982;50.810;4.442;2022-07-06T02:05:08;10.80;99.90
23609;DHT22;11982;50.810;4.442;2022-07-06T02:07:33;10.80;99.90
23609;DHT22;11982;50.810;4.442;2022-07-06T02:09:59;10.80;99.90
23609;DHT22;11982;50.810;4.442;2022-07-06T02:12:24;10.80;99.90
23609;DHT22;11982;50.810;4.442;2022-07-06T02:14:50;10.80;99.90
23609;DHT22;11982;50.810;4.442;2022-07-06T02:17:16;10.80;99.90
23609;DHT22;11982;50.810;4.442;2022-07-06T02:19:41;10.80;99.90
23609;DHT22;11982;50.810;4.442;2022-07-06T02:22:07;10.70;99.90
23609;DHT22;11982;50.810;4.442;2022-07-06T02:24:32;10.70;99.90
23609;DHT22;11982;50.810;4.442;2022-07-06T02:26:58;10.60;99.90
23609;DHT22;11982;50.810;4.442;2022-07-06T02:29:24;10.70;99.90
23609;DHT22;11982;50.810;4.442;2022-07-06T02:31:51;10.70;99.90
23609;DHT22;11982;50.810;4.442;2022-07-06T02:34:16;10.60;99.90
23609;DHT22;11982;50.810;4.442;2022-07-06T02:36:42;10.60;99.90
23609;DHT22;11982;50.810;4.442;2022-07-06T02:39:08;10.70;99.90
23609;DHT22;11982;50.810;4.442;2022-07-06T02:41:33;10.60;99.90
23609;DHT22;11982;50.810;4.442;2022-07-06T02:43:59;10.70;99.90
23609;DHT22;11982;50.810;4.442;2022-07-06T02:46:24;10.60;99.90
23609;DHT22;11982;50.810;4.442;2022-07-06T02:48:50;10.60;99.90
23609;DHT22;11982;50.810;4.442;2022-07-06T02:51:16;10.60;99.90
23609;DHT22;11982;50.810;4.442;2022-07-06T02:53:41;10.50;99.90
23609;DHT22;11982;50.810;4.442;2022-07-06T02:56:07;10.40;99.90
23609;DHT22;11982;50.810;4.442;2022-07-06T02:58:32;10.50;99.90
23609;DHT22;11982;50.810;4.442;2022-07-06T03:00:58;10.50;99.90
23609;DHT22;11982;50.810;4.442;2022-07-06T03:03:24;10.50;99.90
23609;DHT22;11982;50.810;4.442;2022-07-06T03:05:49;10.40;99.90
23609;DHT22;11982;50.810;4.442;2022-07-06T03:08:15;10.40;99.90
23609;DHT22;11982;50.810;4.442;2022-07-06T03:10:41;10.40;99.90
23609;DHT22;11982;50.810;4.442;2022-07-06T03:13:06;10.40;99.90
23609;DHT22;11982;50.810;4.442;2022-07-06T03:15:32;10.40;99.90
23609;DHT22;11982;50.810;4.442;2022-07-06T03:17:58;10.30;99.90
23609;DHT22;11982;50.810;4.442;2022-07-06T03:20:23;10.30;99.90
23609;DHT22;11982;50.810;4.442;2022-07-06T03:22:49;10.40;99.90
23609;DHT22;11982;50.810;4.442;2022-07-06T03:25:14;10.30;99.90
23609;DHT22;11982;50.810;4.442;2022-07-06T03:27:40;10.20;99.90
23609;DHT22;11982;50.810;4.442;2022-07-06T03:30:06;10.10;99.90
23609;DHT22;11982;50.810;4.442;2022-07-06T03:32:32;10.20;99.90
23609;DHT22;11982;50.810;4.442;2022-07-06T03:34:57;10.20;99.90
23609;DHT22;11982;50.810;4.442;2022-07-06T03:37:23;10.20;99.90
23609;DHT22;11982;50.810;4.442;2022-07-06T03:39:48;10.30;99.90
23609;DHT22;11982;50.810;4.442;2022-07-06T03:42:14;10.40;99.90
23609;DHT22;11982;50.810;4.442;2022-07-06T03:44:39;10.40;99.90
23609;DHT22;11982;50.810;4.442;2022-07-06T03:47:05;10.40;99.90
23609;DHT22;11982;50.810;4.442;2022-07-06T03:49:30;10.40;99.90
23609;DHT22;11982;50.810;4.442;2022-07-06T03:51:56;10.30;99.90
23609;DHT22;11982;50.810;4.442;2022-07-06T03:54:22;10.30;99.90
23609;DHT22;11982;50.810;4.442;2022-07-06T03:56:47;10.30;99.90
23609;DHT22;11982;50.810;4.442;2022-07-06T03:59:13;10.30;99.90
23609;DHT22;11982;50.810;4.442;2022-07-06T04:01:40;10.20;99.90
23609;DHT22;11982;50.810;4.442;2022-07-06T04:04:05;10.30;99.90
23609;DHT22;11982;50.810;4.442;2022-07-06T04:06:31;10.40;99.90
23609;DHT22;11982;50.810;4.442;2022-07-06T04:08:57;10.50;99.90
23609;DHT22;11982;50.810;4.442;2022-07-06T04:11:22;10.70;99.90
23609;DHT22;11982;50.810;4.442;2022-07-06T04:13:48;10.80;99.90
23609;DHT22;11982;50.810;4.442;2022-07-06T04:16:13;10.80;99.90
23609;DHT22;11982;50.810;4.442;2022-07-06T04:18:39;10.80;99.90
23609;DHT22;11982;50.810;4.442;2022-07-06T04:21:04;10.80;99.90
23609;DHT22;11982;50.810;4.442;2022-07-06T04:23:30;10.80;99.90
23609;DHT22;11982;50.810;4.442;2022-07-06T04:25:56;10.80;99.90
23609;DHT22;11982;50.810;4.442;2022-07-06T04:28:22;10.90;99.90
23609;DHT22;11982;50.810;4.442;2022-07-06T04:30:48;11.00;99.90
23609;DHT22;11982;50.810;4.442;2022-07-06T04:33:13;11.10;99.90
23609;DHT22;11982;50.810;4.442;2022-07-06T04:35:39;11.20;99.90
23609;DHT22;11982;50.810;4.442;2022-07-06T04:38:04;11.50;99.90
23609;DHT22;11982;50.810;4.442;2022-07-06T04:40:30;11.50;99.90
23609;DHT22;11982;50.810;4.442;2022-07-06T04:42:56;11.60;99.90
23609;DHT22;11982;50.810;4.442;2022-07-06T04:45:21;11.50;99.90
23609;DHT22;11982;50.810;4.442;2022-07-06T04:47:47;11.70;99.90
23609;DHT22;11982;50.810;4.442;2022-07-06T04:50:13;11.80;99.90
23609;DHT22;11982;50.810;4.442;2022-07-06T04:52:39;11.80;99.90
23609;DHT22;11982;50.810;4.442;2022-07-06T04:55:04;11.50;99.90
23609;DHT22;11982;50.810;4.442;2022-07-06T04:57:31;11.50;99.90
23609;DHT22;11982;50.810;4.442;2022-07-06T04:59:57;11.60;99.90
23609;DHT22;11982;50.810;4.442;2022-07-06T05:02:23;11.80;99.90
23609;DHT22;11982;50.810;4.442;2022-07-06T05:04:49;12.10;99.90
23609;DHT22;11982;50.810;4.442;2022-07-06T05:07:14;12.50;99.90
23609;DHT22;11982;50.810;4.442;2022-07-06T05:09:40;12.70;99.90
23609;DHT22;11982;50.810;4.442;2022-07-06T05:12:06;12.60;99.90
23609;DHT22;11982;50.810;4.442;2022-07-06T05:14:33;12.40;99.90
23609;DHT22;11982;50.810;4.442;2022-07-06T05:16:58;12.20;99.90
23609;DHT22;11982;50.810;4.442;2022-07-06T05:19:24;12.40;99.90
23609;DHT22;11982;50.810;4.442;2022-07-06T05:21:49;12.60;99.90
23609;DHT22;11982;50.810;4.442;2022-07-06T05:24:15;12.90;99.90
23609;DHT22;11982;50.810;4.442;2022-07-06T05:26:41;12.90;99.90
23609;DHT22;11982;50.810;4.442;2022-07-06T05:29:07;13.00;99.90
23609;DHT22;11982;50.810;4.442;2022-07-06T05:31:32;13.00;99.90
23609;DHT22;11982;50.810;4.442;2022-07-06T05:33:58;13.10;99.90
23609;DHT22;11982;50.810;4.442;2022-07-06T05:36:24;13.10;99.90
23609;DHT22;11982;50.810;4.442;2022-07-06T05:38:49;13.20;99.90
23609;DHT22;11982;50.810;4.442;2022-07-06T05:41:15;13.40;99.90
23609;DHT22;11982;50.810;4.442;2022-07-06T05:43:41;13.70;99.90
23609;DHT22;11982;50.810;4.442;2022-07-06T05:46:06;13.80;99.90
23609;DHT22;11982;50.810;4.442;2022-07-06T05:48:32;13.80;99.90
23609;DHT22;11982;50.810;4.442;2022-07-06T05:51:16;14.00;99.90
23609;DHT22;11982;50.810;4.442;2022-07-06T05:53:42;14.30;99.90
23609;DHT22;11982;50.810;4.442;2022-07-06T05:56:07;14.40;99.90
23609;DHT22;11982;50.810;4.442;2022-07-06T05:58:33;14.80;99.90
23609;DHT22;11982;50.810;4.442;2022-07-06T06:00:58;14.70;99.90
23609;DHT22;11982;50.810;4.442;2022-07-06T06:03:24;14.60;99.90
23609;DHT22;11982;50.810;4.442;2022-07-06T06:05:50;14.80;99.90
23609;DHT22;11982;50.810;4.442;2022-07-06T06:08:16;15.40;99.90
23609;DHT22;11982;50.810;4.442;2022-07-06T06:10:42;15.80;99.90
23609;DHT22;11982;50.810;4.442;2022-07-06T06:13:07;15.90;99.90
23609;DHT22;11982;50.810;4.442;2022-07-06T06:15:33;15.80;99.90
23609;DHT22;11982;50.810;4.442;2022-07-06T06:17:59;16.20;99.90
23609;DHT22;11982;50.810;4.442;2022-07-06T06:20:24;16.50;99.90
23609;DHT22;11982;50.810;4.442;2022-07-06T06:22:52;16.90;99.90
23609;DHT22;11982;50.810;4.442;2022-07-06T06:25:40;17.30;99.90
23609;DHT22;11982;50.810;4.442;2022-07-06T06:28:07;17.20;99.90
23609;DHT22;11982;50.810;4.442;2022-07-06T06:30:33;17.00;99.90
23609;DHT22;11982;50.810;4.442;2022-07-06T06:33:16;17.10;99.90
23609;DHT22;11982;50.810;4.442;2022-07-06T06:35:44;17.50;99.90
23609;DHT22;11982;50.810;4.442;2022-07-06T06:38:10;17.30;99.90
23609;DHT22;11982;50.810;4.442;2022-07-06T06:40:36;17.50;99.90
23609;DHT22;11982;50.810;4.442;2022-07-06T06:43:02;17.50;99.90
23609;DHT22;11982;50.810;4.442;2022-07-06T06:45:27;17.60;99.90
23609;DHT22;11982;50.810;4.442;2022-07-06T06:47:53;17.90;99.90
23609;DHT22;11982;50.810;4.442;2022-07-06T06:50:19;18.20;99.90
23609;DHT22;11982;50.810;4.442;2022-07-06T06:52:44;18.00;99.90
23609;DHT22;11982;50.810;4.442;2022-07-06T06:55:10;17.70;99.90
23609;DHT22;11982;50.810;4.442;2022-07-06T06:57:36;17.60;99.90
23609;DHT22;11982;50.810;4.442;2022-07-06T07:00:04;17.60;99.90
23609;DHT22;11982;50.810;4.442;2022-07-06T07:02:29;17.90;99.90
23609;DHT22;11982;50.810;4.442;2022-07-06T07:04:55;18.30;99.90
23609;DHT22;11982;50.810;4.442;2022-07-06T07:07:21;18.50;99.90
23609;DHT22;11982;50.810;4.442;2022-07-06T07:09:46;18.70;99.90
23609;DHT22;11982;50.810;4.442;2022-07-06T07:12:12;19.00;99.90
23609;DHT22;11982;50.810;4.442;2022-07-06T07:14:40;19.50;99.90
23609;DHT22;11982;50.810;4.442;2022-07-06T07:17:06;19.50;99.90
23609;DHT22;11982;50.810;4.442;2022-07-06T07:19:32;19.30;99.90
23609;DHT22;11982;50.810;4.442;2022-07-06T07:21:57;19.40;99.90
23609;DHT22;11982;50.810;4.442;2022-07-06T07:24:23;19.80;99.90
23609;DHT22;11982;50.810;4.442;2022-07-06T07:26:48;20.00;99.90
23609;DHT22;11982;50.810;4.442;2022-07-06T07:29:14;19.90;99.90
23609;DHT22;11982;50.810;4.442;2022-07-06T07:31:40;19.70;99.90
23609;DHT22;11982;50.810;4.442;2022-07-06T07:34:05;19.70;99.90
23609;DHT22;11982;50.810;4.442;2022-07-06T07:36:31;19.80;99.90
23609;DHT22;11982;50.810;4.442;2022-07-06T07:38:56;20.20;99.90
23609;DHT22;11982;50.810;4.442;2022-07-06T07:41:22;19.90;99.90
23609;DHT22;11982;50.810;4.442;2022-07-06T07:43:48;19.90;99.90
23609;DHT22;11982;50.810;4.442;2022-07-06T07:46:13;20.40;99.90
23609;DHT22;11982;50.810;4.442;2022-07-06T07:48:39;20.50;99.90
23609;DHT22;11982;50.810;4.442;2022-07-06T07:51:05;20.00;99.90
23609;DHT22;11982;50.810;4.442;2022-07-06T07:53:30;19.70;99.90
23609;DHT22;11982;50.810;4.442;2022-07-06T07:55:56;19.70;99.90
23609;DHT22;11982;50.810;4.442;2022-07-06T07:58:21;19.80;99.90
23609;DHT22;11982;50.810;4.442;2022-07-06T08:00:47;19.50;99.90
23609;DHT22;11982;50.810;4.442;2022-07-06T08:03:13;19.30;99.90
23609;DHT22;11982;50.810;4.442;2022-07-06T08:05:38;19.20;99.90
23609;DHT22;11982;50.810;4.442;2022-07-06T08:08:04;18.90;99.90
23609;DHT22;11982;50.810;4.442;2022-07-06T08:10:30;18.70;99.90
23609;DHT22;11982;50.810;4.442;2022-07-06T08:12:56;19.10;99.90
23609;DHT22;11982;50.810;4.442;2022-07-06T08:15:21;19.20;99.90
23609;DHT22;11982;50.810;4.442;2022-07-06T08:17:47;19.50;99.90
23609;DHT22;11982;50.810;4.442;2022-07-06T08:20:13;19.60;99.90
23609;DHT22;11982;50.810;4.442;2022-07-06T08:22:39;19.40;99.90
23609;DHT22;11982;50.810;4.442;2022-07-06T08:25:05;19.40;99.90
23609;DHT22;11982;50.810;4.442;2022-07-06T08:27:31;19.50;99.90
23609;DHT22;11982;50.810;4.442;2022-07-06T08:29:57;19.40;99.90
23609;DHT22;11982;50.810;4.442;2022-07-06T08:32:22;19.60;99.90
23609;DHT22;11982;50.810;4.442;2022-07-06T08:34:48;19.60;99.90
23609;DHT22;11982;50.810;4.442;2022-07-06T08:37:14;19.30;99.90
23609;DHT22;11982;50.810;4.442;2022-07-06T08:39:39;19.60;99.90
23609;DHT22;11982;50.810;4.442;2022-07-06T08:42:07;20.00;99.90
23609;DHT22;11982;50.810;4.442;2022-07-06T08:44:33;20.20;99.90
23609;DHT22;11982;50.810;4.442;2022-07-06T08:47:04;20.30;99.90
23609;DHT22;11982;50.810;4.442;2022-07-06T08:49:31;20.50;99.90
23609;DHT22;11982;50.810;4.442;2022-07-06T08:51:57;20.50;99.90
23609;DHT22;11982;50.810;4.442;2022-07-06T08:54:23;20.60;99.90
23609;DHT22;11982;50.810;4.442;2022-07-06T08:56:50;20.90;99.90
23609;DHT22;11982;50.810;4.442;2022-07-06T08:59:17;20.70;99.90
23609;DHT22;11982;50.810;4.442;2022-07-06T09:01:44;21.00;99.90
23609;DHT22;11982;50.810;4.442;2022-07-06T09:04:12;21.20;99.90
23609;DHT22;11982;50.810;4.442;2022-07-06T09:06:42;20.90;99.90
23609;DHT22;11982;50.810;4.442;2022-07-06T09:09:08;20.50;99.90
23609;DHT22;11982;50.810;4.442;2022-07-06T09:11:34;20.80;99.90
23609;DHT22;11982;50.810;4.442;2022-07-06T09:14:01;20.70;99.90
23609;DHT22;11982;50.810;4.442;2022-07-06T09:16:29;20.70;99.90
23609;DHT22;11982;50.810;4.442;2022-07-06T09:18:56;21.10;99.90
23609;DHT22;11982;50.810;4.442;2022-07-06T09:21:30;20.90;99.90
23609;DHT22;11982;50.810;4.442;2022-07-06T09:23:58;20.80;99.90
23609;DHT22;11982;50.810;4.442;2022-07-06T09:26:24;20.70;99.90
23609;DHT22;11982;50.810;4.442;2022-07-06T09:28:49;20.70;99.90
23609;DHT22;11982;50.810;4.442;2022-07-06T09:31:15;21.20;99.90
23609;DHT22;11982;50.810;4.442;2022-07-06T09:33:58;21.00;99.90
23609;DHT22;11982;50.810;4.442;2022-07-06T09:39:24;21.00;99.90
23609;DHT22;11982;50.810;4.442;2022-07-06T09:41:55;21.80;99.90
23609;DHT22;11982;50.810;4.442;2022-07-06T09:44:26;22.50;99.90
23609;DHT22;11982;50.810;4.442;2022-07-06T09:46:53;23.20;99.90
23609;DHT22;11982;50.810;4.442;2022-07-06T09:49:21;23.20;99.90
23609;DHT22;11982;50.810;4.442;2022-07-06T09:51:53;23.10;99.90
23609;DHT22;11982;50.810;4.442;2022-07-06T09:54:19;23.20;99.90
23609;DHT22;11982;50.810;4.442;2022-07-06T09:56:47;22.50;99.90
23609;DHT22;11982;50.810;4.442;2022-07-06T09:59:17;22.20;99.90
23609;DHT22;11982;50.810;4.442;2022-07-06T10:01:43;22.00;99.90
23609;DHT22;11982;50.810;4.442;2022-07-06T10:04:11;21.70;99.90
23609;DHT22;11982;50.810;4.442;2022-07-06T10:06:39;21.60;99.90
23609;DHT22;11982;50.810;4.442;2022-07-06T10:09:07;21.50;99.90
23609;DHT22;11982;50.810;4.442;2022-07-06T10:11:37;21.50;99.90
23609;DHT22;11982;50.810;4.442;2022-07-06T10:14:04;21.50;99.90
23609;DHT22;11982;50.810;4.442;2022-07-06T10:16:31;21.20;99.90
23609;DHT22;11982;50.810;4.442;2022-07-06T10:18:57;21.20;99.90
23609;DHT22;11982;50.810;4.442;2022-07-06T10:21:24;21.50;99.90
23609;DHT22;11982;50.810;4.442;2022-07-06T10:23:51;22.00;99.90
23609;DHT22;11982;50.810;4.442;2022-07-06T10:26:17;22.20;99.90
23609;DHT22;11982;50.810;4.442;2022-07-06T10:28:44;23.00;99.90
23609;DHT22;11982;50.810;4.442;2022-07-06T10:31:15;23.10;99.90
23609;DHT22;11982;50.810;4.442;2022-07-06T10:33:41;23.10;99.90
23609;DHT22;11982;50.810;4.442;2022-07-06T10:36:08;23.00;99.90
23609;DHT22;11982;50.810;4.442;2022-07-06T10:38:34;23.30;99.90
23609;DHT22;11982;50.810;4.442;2022-07-06T10:41:05;22.40;99.90
23609;DHT22;11982;50.810;4.442;2022-07-06T10:43:50;21.90;99.90
23609;DHT22;11982;50.810;4.442;2022-07-06T10:46:16;21.80;99.90
23609;DHT22;11982;50.810;4.442;2022-07-06T10:48:45;21.90;99.90
23609;DHT22;11982;50.810;4.442;2022-07-06T10:51:12;22.00;99.90
23609;DHT22;11982;50.810;4.442;2022-07-06T10:53:39;22.70;99.90
23609;DHT22;11982;50.810;4.442;2022-07-06T10:56:10;22.40;99.90
23609;DHT22;11982;50.810;4.442;2022-07-06T10:58:41;21.70;99.90
23609;DHT22;11982;50.810;4.442;2022-07-06T11:01:11;21.70;99.90
23609;DHT22;11982;50.810;4.442;2022-07-06T11:06:18;21.90;99.90
23609;DHT22;11982;50.810;4.442;2022-07-06T11:08:56;22.40;99.90
23609;DHT22;11982;50.810;4.442;2022-07-06T11:16:31;22.90;99.90
23609;DHT22;11982;50.810;4.442;2022-07-06T11:19:14;23.40;99.90
23609;DHT22;11982;50.810;4.442;2022-07-06T11:21:54;23.70;99.90
23609;DHT22;11982;50.810;4.442;2022-07-06T11:24:26;24.30;99.90
23609;DHT22;11982;50.810;4.442;2022-07-06T11:26:53;24.30;99.90
23609;DHT22;11982;50.810;4.442;2022-07-06T11:29:21;24.10;99.90
23609;DHT22;11982;50.810;4.442;2022-07-06T11:31:48;24.20;99.90
23609;DHT22;11982;50.810;4.442;2022-07-06T11:34:19;23.80;99.90
23609;DHT22;11982;50.810;4.442;2022-07-06T11:36:45;24.00;99.90
23609;DHT22;11982;50.810;4.442;2022-07-06T11:39:12;23.70;99.90
23609;DHT22;11982;50.810;4.442;2022-07-06T11:41:37;23.40;99.90
23609;DHT22;11982;50.810;4.442;2022-07-06T11:44:04;23.70;99.90
23609;DHT22;11982;50.810;4.442;2022-07-06T11:46:32;23.40;99.90
23609;DHT22;11982;50.810;4.442;2022-07-06T11:49:04;23.30;99.90
23609;DHT22;11982;50.810;4.442;2022-07-06T11:51:32;22.80;99.90
23609;DHT22;11982;50.810;4.442;2022-07-06T11:54:01;22.50;99.90
23609;DHT22;11982;50.810;4.442;2022-07-06T11:56:28;22.70;99.90
23609;DHT22;11982;50.810;4.442;2022-07-06T11:58:57;22.70;99.90
23609;DHT22;11982;50.810;4.442;2022-07-06T12:01:25;22.90;99.90
23609;DHT22;11982;50.810;4.442;2022-07-06T12:03:51;22.90;99.90
23609;DHT22;11982;50.810;4.442;2022-07-06T12:06:20;23.10;99.90
23609;DHT22;11982;50.810;4.442;2022-07-06T12:08:51;22.30;99.90
23609;DHT22;11982;50.810;4.442;2022-07-06T12:11:27;22.40;99.90
23609;DHT22;11982;50.810;4.442;2022-07-06T12:13:57;22.60;99.90
23609;DHT22;11982;50.810;4.442;2022-07-06T12:16:34;23.20;99.90
23609;DHT22;11982;50.810;4.442;2022-07-06T12:19:03;23.50;99.90
23609;DHT22;11982;50.810;4.442;2022-07-06T12:21:29;23.20;99.90
23609;DHT22;11982;50.810;4.442;2022-07-06T12:23:55;23.00;99.90
23609;DHT22;11982;50.810;4.442;2022-07-06T12:26:26;22.80;99.90
23609;DHT22;11982;50.810;4.442;2022-07-06T12:29:05;22.40;99.90
23609;DHT22;11982;50.810;4.442;2022-07-06T12:31:39;22.40;99.90
23609;DHT22;11982;50.810;4.442;2022-07-06T12:34:12;22.60;99.90
23609;DHT22;11982;50.810;4.442;2022-07-06T12:36:45;22.80;99.90
23609;DHT22;11982;50.810;4.442;2022-07-06T12:39:13;22.50;99.90
23609;DHT22;11982;50.810;4.442;2022-07-06T12:41:50;22.40;99.90
23609;DHT22;11982;50.810;4.442;2022-07-06T12:44:19;22.20;99.90
23609;DHT22;11982;50.810;4.442;2022-07-06T12:46:45;22.00;99.90
23609;DHT22;11982;50.810;4.442;2022-07-06T12:49:13;21.80;99.90
23609;DHT22;11982;50.810;4.442;2022-07-06T12:54:15;22.40;99.90
23609;DHT22;11982;50.810;4.442;2022-07-06T12:59:23;22.70;99.90
23609;DHT22;11982;50.810;4.442;2022-07-06T13:01:48;23.10;99.90
23609;DHT22;11982;50.810;4.442;2022-07-06T13:04:16;22.80;99.90
23609;DHT22;11982;50.810;4.442;2022-07-06T13:06:41;23.40;99.90
23609;DHT22;11982;50.810;4.442;2022-07-06T13:09:07;23.70;99.90
23609;DHT22;11982;50.810;4.442;2022-07-06T13:11:33;23.30;99.90
23609;DHT22;11982;50.810;4.442;2022-07-06T13:13:59;23.40;99.90
23609;DHT22;11982;50.810;4.442;2022-07-06T13:16:25;23.40;99.90
23609;DHT22;11982;50.810;4.442;2022-07-06T13:18:56;23.80;99.90
23609;DHT22;11982;50.810;4.442;2022-07-06T13:21:22;23.80;99.90
23609;DHT22;11982;50.810;4.442;2022-07-06T13:23:47;23.00;99.90
23609;DHT22;11982;50.810;4.442;2022-07-06T13:26:13;23.00;99.90
23609;DHT22;11982;50.810;4.442;2022-07-06T13:28:39;23.20;99.90
23609;DHT22;11982;50.810;4.442;2022-07-06T13:31:05;23.30;99.90
23609;DHT22;11982;50.810;4.442;2022-07-06T13:33:30;23.80;99.90
23609;DHT22;11982;50.810;4.442;2022-07-06T13:35:56;24.00;99.90
23609;DHT22;11982;50.810;4.442;2022-07-06T13:38:22;23.80;99.90
23609;DHT22;11982;50.810;4.442;2022-07-06T13:40:47;23.70;99.90
23609;DHT22;11982;50.810;4.442;2022-07-06T13:43:13;23.60;99.90
23609;DHT22;11982;50.810;4.442;2022-07-06T13:45:39;24.20;99.90
23609;DHT22;11982;50.810;4.442;2022-07-06T13:48:05;24.10;99.90
23609;DHT22;11982;50.810;4.442;2022-07-06T13:50:30;24.20;99.90
23609;DHT22;11982;50.810;4.442;2022-07-06T13:52:58;24.10;99.90
23609;DHT22;11982;50.810;4.442;2022-07-06T13:55:24;23.90;99.90
23609;DHT22;11982;50.810;4.442;2022-07-06T13:57:50;24.40;99.90
23609;DHT22;11982;50.810;4.442;2022-07-06T14:00:16;24.30;99.90
23609;DHT22;11982;50.810;4.442;2022-07-06T14:02:44;24.00;99.90
23609;DHT22;11982;50.810;4.442;2022-07-06T14:05:09;24.20;99.90
23609;DHT22;11982;50.810;4.442;2022-07-06T14:07:35;24.10;99.90
23609;DHT22;11982;50.810;4.442;2022-07-06T14:10:01;24.40;99.90
23609;DHT22;11982;50.810;4.442;2022-07-06T14:12:27;24.80;99.90
23609;DHT22;11982;50.810;4.442;2022-07-06T14:14:52;25.50;99.90
23609;DHT22;11982;50.810;4.442;2022-07-06T14:17:18;25.40;99.90
23609;DHT22;11982;50.810;4.442;2022-07-06T14:19:44;25.60;99.90
23609;DHT22;11982;50.810;4.442;2022-07-06T14:22:10;25.60;99.90
23609;DHT22;11982;50.810;4.442;2022-07-06T14:24:35;26.10;99.90
23609;DHT22;11982;50.810;4.442;2022-07-06T14:27:01;26.30;99.90
23609;DHT22;11982;50.810;4.442;2022-07-06T14:29:27;26.30;99.90
23609;DHT22;11982;50.810;4.442;2022-07-06T14:31:52;25.90;99.90
23609;DHT22;11982;50.810;4.442;2022-07-06T14:34:18;25.60;99.90
23609;DHT22;11982;50.810;4.442;2022-07-06T14:36:44;25.40;99.90
23609;DHT22;11982;50.810;4.442;2022-07-06T14:39:10;24.80;99.90
23609;DHT22;11982;50.810;4.442;2022-07-06T14:41:38;24.30;99.90
23609;DHT22;11982;50.810;4.442;2022-07-06T14:44:04;24.10;99.90
23609;DHT22;11982;50.810;4.442;2022-07-06T14:46:30;23.80;99.90
23609;DHT22;11982;50.810;4.442;2022-07-06T14:48:56;23.90;99.90
23609;DHT22;11982;50.810;4.442;2022-07-06T14:51:22;24.10;99.90
23609;DHT22;11982;50.810;4.442;2022-07-06T14:53:47;24.10;99.90
23609;DHT22;11982;50.810;4.442;2022-07-06T14:56:13;23.90;99.90
23609;DHT22;11982;50.810;4.442;2022-07-06T14:58:39;24.40;99.90
23609;DHT22;11982;50.810;4.442;2022-07-06T15:01:04;24.70;99.90
23609;DHT22;11982;50.810;4.442;2022-07-06T15:03:30;25.00;99.90
23609;DHT22;11982;50.810;4.442;2022-07-06T15:05:56;24.50;99.90
23609;DHT22;11982;50.810;4.442;2022-07-06T15:08:21;25.00;99.90
23609;DHT22;11982;50.810;4.442;2022-07-06T15:10:47;25.60;99.90
23609;DHT22;11982;50.810;4.442;2022-07-06T15:13:13;25.60;99.90
23609;DHT22;11982;50.810;4.442;2022-07-06T15:15:39;24.80;99.90
23609;DHT22;11982;50.810;4.442;2022-07-06T15:18:05;24.30;99.90
23609;DHT22;11982;50.810;4.442;2022-07-06T15:20:30;24.20;99.90
23609;DHT22;11982;50.810;4.442;2022-07-06T15:22:56;23.90;99.90
23609;DHT22;11982;50.810;4.442;2022-07-06T15:25:21;23.70;99.90
23609;DHT22;11982;50.810;4.442;2022-07-06T15:27:50;23.50;99.90
23609;DHT22;11982;50.810;4.442;2022-07-06T15:30:16;23.70;99.90
23609;DHT22;11982;50.810;4.442;2022-07-06T15:32:42;24.10;99.90
23609;DHT22;11982;50.810;4.442;2022-07-06T15:35:07;24.70;99.90
23609;DHT22;11982;50.810;4.442;2022-07-06T15:37:34;24.20;99.90
23609;DHT22;11982;50.810;4.442;2022-07-06T15:42:50;24.20;99.90
23609;DHT22;11982;50.810;4.442;2022-07-06T15:45:17;24.00;99.90